createdAt,value
2022-09-18T00:00:09.562Z,100718.22
2022-09-18T00:02:38.433Z,100717.09
2022-09-18T00:05:06.530Z,100718.66
2022-09-18T00:08:21.159Z,100717.28
2022-09-18T00:10:48.650Z,100721.03
2022-09-18T00:13:16.275Z,100715.19
2022-09-18T00:15:43.841Z,100716.94
2022-09-18T00:18:11.364Z,100717.72
2022-09-18T00:20:39.118Z,100719.56
2022-09-18T00:23:06.611Z,100717.63
2022-09-18T00:25:35.441Z,100717.69
2022-09-18T00:28:03.308Z,100717.50
2022-09-18T00:30:30.829Z,100715.94
2022-09-18T00:32:58.312Z,100711.13
2022-09-18T00:35:25.880Z,100722.53
2022-09-18T00:37:53.390Z,100721.53
2022-09-18T00:40:20.991Z,100725.81
2022-09-18T00:42:49.898Z,100718.06
2022-09-18T00:45:17.476Z,100720.06
2022-09-18T00:47:47.531Z,100721.78
2022-09-18T00:50:18.028Z,100723.47
2022-09-18T00:52:51.371Z,100725.03
2022-09-18T00:55:23.951Z,100724.88
2022-09-18T00:57:55.170Z,100728.38
2022-09-18T01:00:22.934Z,100721.41
2022-09-18T01:02:50.868Z,100718.78
2022-09-18T01:05:23.027Z,100720.50
2022-09-18T01:08:07.566Z,100723.97
2022-09-18T01:10:45.459Z,100717.72
2022-09-18T01:13:18.679Z,100728.72
2022-09-18T01:15:49.831Z,100718.00
2022-09-18T01:18:22.307Z,100717.44
2022-09-18T01:21:02.719Z,100718.09
2022-09-18T01:23:44.719Z,100717.81
2022-09-18T01:26:25.198Z,100718.66
2022-09-18T01:28:58.507Z,100710.59
2022-09-18T01:31:30.100Z,100706.88
2022-09-18T01:34:00.795Z,100707.59
2022-09-18T01:36:29.395Z,100707.47
2022-09-18T01:38:59.867Z,100707.31
2022-09-18T01:41:29.083Z,100716.63
2022-09-18T01:44:01.338Z,100711.44
2022-09-18T01:46:29.183Z,100704.22
2022-09-18T01:48:58.668Z,100698.97
2022-09-18T01:51:30.775Z,100704.06
2022-09-18T01:54:01.187Z,100700.38
2022-09-18T01:56:32.271Z,100697.69
2022-09-18T01:59:05.135Z,100699.16
2022-09-18T02:01:34.726Z,100689.44
2022-09-18T02:04:05.089Z,100692.84
2022-09-18T02:06:35.303Z,100683.94
2022-09-18T02:09:58.264Z,100689.13
2022-09-18T02:12:27.468Z,100688.34
2022-09-18T02:14:58.107Z,100680.31
2022-09-18T02:17:29.132Z,100682.81
2022-09-18T02:20:00.339Z,100682.03
2022-09-18T02:22:30.432Z,100673.91
2022-09-18T02:25:01.641Z,100675.78
2022-09-18T02:27:30.102Z,100674.91
2022-09-18T02:29:57.857Z,100678.41
2022-09-18T02:32:25.372Z,100682.03
2022-09-18T02:34:53.159Z,100676.78
2022-09-18T02:37:28.667Z,100673.28
2022-09-18T02:40:08.287Z,100670.59
2022-09-18T02:42:43.452Z,100674.13
2022-09-18T02:45:15.975Z,100674.13
2022-09-18T02:47:54.850Z,100672.44
2022-09-18T02:50:27.578Z,100666.41
2022-09-18T02:53:05.311Z,100667.09
2022-09-18T02:55:41.999Z,100671.22
2022-09-18T02:58:15.843Z,100667.09
2022-09-18T03:00:45.355Z,100661.78
2022-09-18T03:03:14.865Z,100661.00
2022-09-18T03:05:42.383Z,100663.56
2022-09-18T03:08:09.893Z,100668.50
2022-09-18T03:10:38.947Z,100659.84
2022-09-18T03:13:06.921Z,100657.28
2022-09-18T03:15:34.459Z,100655.66
2022-09-18T03:18:02.410Z,100648.78
2022-09-18T03:20:29.928Z,100663.78
2022-09-18T03:22:57.429Z,100654.03
2022-09-18T03:25:24.976Z,100659.28
2022-09-18T03:27:56.319Z,100660.84
2022-09-18T03:30:24.115Z,100662.56
2022-09-18T03:32:51.785Z,100651.19
2022-09-18T03:35:19.300Z,100648.63
2022-09-18T03:37:46.796Z,100648.63
2022-09-18T03:40:15.848Z,100641.53
2022-09-18T03:42:44.191Z,100650.47
2022-09-18T03:45:13.664Z,100653.88
2022-09-18T03:47:41.176Z,100657.22
2022-09-18T03:50:09.126Z,100645.69
2022-09-18T03:52:36.677Z,100650.88
2022-09-18T03:55:04.776Z,100638.75
2022-09-18T03:57:32.278Z,100647.25
2022-09-18T03:59:59.839Z,100647.31
2022-09-18T04:02:28.714Z,100643.78
2022-09-18T04:04:56.856Z,100643.69
2022-09-18T04:07:24.811Z,100640.22
2022-09-18T04:10:56.269Z,100645.47
2022-09-18T04:13:23.782Z,100657.78
2022-09-18T04:15:51.329Z,100655.53
2022-09-18T04:18:18.942Z,100653.91
2022-09-18T04:20:46.996Z,100653.75
2022-09-18T04:23:14.537Z,100657.31
2022-09-18T04:25:43.827Z,100653.13
2022-09-18T04:28:12.680Z,100660.09
2022-09-18T04:30:40.172Z,100649.66
2022-09-18T04:33:08.398Z,100656.75
2022-09-18T04:35:36.328Z,100656.00
2022-09-18T04:38:03.884Z,100651.72
2022-09-18T04:40:31.605Z,100651.72
2022-09-18T04:42:59.201Z,100648.19
2022-09-18T04:45:28.104Z,100653.44
2022-09-18T04:47:55.592Z,100658.78
2022-09-18T04:50:23.144Z,100657.00
2022-09-18T04:52:50.643Z,100651.88
2022-09-18T04:55:18.284Z,100662.56
2022-09-18T04:57:45.770Z,100650.34
2022-09-18T05:00:14.123Z,100656.50
2022-09-18T05:02:42.955Z,100661.00
2022-09-18T05:05:10.548Z,100664.56
2022-09-18T05:07:38.035Z,100656.66
2022-09-18T05:10:08.592Z,100665.41
2022-09-18T05:12:36.067Z,100667.97
2022-09-18T05:15:03.632Z,100668.66
2022-09-18T05:17:32.684Z,100671.22
2022-09-18T05:20:01.545Z,100666.81
2022-09-18T05:22:29.596Z,100665.97
2022-09-18T05:24:57.247Z,100666.72
2022-09-18T05:27:27.000Z,100668.50
2022-09-18T05:29:54.683Z,100669.34
2022-09-18T05:32:22.361Z,100661.47
2022-09-18T05:34:50.283Z,100655.50
2022-09-18T05:37:19.689Z,100661.63
2022-09-18T05:39:47.199Z,100662.56
2022-09-18T05:42:14.953Z,100666.25
2022-09-18T05:44:42.442Z,100667.09
2022-09-18T05:47:09.939Z,100665.25
2022-09-18T05:49:37.432Z,100657.28
2022-09-18T05:52:05.243Z,100656.38
2022-09-18T05:54:36.118Z,100665.09
2022-09-18T05:57:03.606Z,100660.69
2022-09-18T05:59:31.148Z,100670.28
2022-09-18T06:01:58.697Z,100674.47
2022-09-18T06:04:26.235Z,100666.50
2022-09-18T06:06:54.084Z,100659.25
2022-09-18T06:09:21.985Z,100655.75
2022-09-18T06:11:50.835Z,100660.94
2022-09-18T06:14:18.346Z,100668.84
2022-09-18T06:16:45.962Z,100664.13
2022-09-18T06:19:13.494Z,100667.69
2022-09-18T06:21:41.603Z,100667.38
2022-09-18T06:24:09.528Z,100671.72
2022-09-18T06:26:37.141Z,100662.66
2022-09-18T06:29:06.024Z,100662.72
2022-09-18T06:31:33.544Z,100666.13
2022-09-18T06:34:01.090Z,100669.69
2022-09-18T06:36:28.588Z,100659.03
2022-09-18T06:38:56.091Z,100660.69
2022-09-18T06:41:24.506Z,100668.66
2022-09-18T06:43:52.052Z,100669.72
2022-09-18T06:46:20.935Z,100660.59
2022-09-18T06:48:49.440Z,100665.41
2022-09-18T06:51:17.023Z,100667.84
2022-09-18T06:53:44.891Z,100673.91
2022-09-18T06:56:12.396Z,100675.38
2022-09-18T06:58:39.898Z,100681.19
2022-09-18T07:01:07.467Z,100680.56
2022-09-18T07:03:36.420Z,100688.59
2022-09-18T07:06:04.052Z,100673.84
2022-09-18T07:08:31.634Z,100675.38
2022-09-18T07:11:01.736Z,100683.19
2022-09-18T07:13:31.343Z,100682.72
2022-09-18T07:15:59.357Z,100678.78
2022-09-18T07:18:27.327Z,100672.34
2022-09-18T07:20:56.188Z,100673.28
2022-09-18T07:23:24.226Z,100681.34
2022-09-18T07:25:51.727Z,100670.97
2022-09-18T07:28:19.241Z,100676.06
2022-09-18T07:30:46.823Z,100676.91
2022-09-18T07:33:14.450Z,100674.28
2022-09-18T07:35:41.964Z,100679.31
2022-09-18T07:38:11.699Z,100677.63
2022-09-18T07:40:40.170Z,100677.16
2022-09-18T07:43:09.434Z,100677.00
2022-09-18T07:45:37.374Z,100676.69
2022-09-18T07:48:05.949Z,100675.75
2022-09-18T07:50:33.539Z,100677.94
2022-09-18T07:53:02.471Z,100673.44
2022-09-18T07:55:31.640Z,100674.97
2022-09-18T07:58:00.481Z,100681.94
2022-09-18T08:00:29.803Z,100687.22
2022-09-18T08:03:02.981Z,100682.88
2022-09-18T08:05:30.588Z,100680.31
2022-09-18T08:08:03.061Z,100674.97
2022-09-18T08:10:32.499Z,100676.38
2022-09-18T08:13:00.114Z,100685.03
2022-09-18T08:15:27.674Z,100679.59
2022-09-18T08:17:55.172Z,100672.34
2022-09-18T08:20:22.721Z,100672.63
2022-09-18T08:22:50.791Z,100670.50
2022-09-18T08:25:19.064Z,100672.50
2022-09-18T08:27:48.527Z,100666.31
2022-09-18T08:30:17.402Z,100674.06
2022-09-18T08:32:44.935Z,100668.88
2022-09-18T08:35:12.426Z,100668.78
2022-09-18T08:37:39.960Z,100670.09
2022-09-18T08:40:09.002Z,100671.78
2022-09-18T08:42:43.405Z,100663.97
2022-09-18T08:45:30.094Z,100670.88
2022-09-18T08:47:59.755Z,100661.34
2022-09-18T08:50:29.149Z,100663.81
2022-09-18T08:52:59.216Z,100666.78
2022-09-18T08:55:29.994Z,100666.69
2022-09-18T08:58:00.796Z,100667.19
2022-09-18T09:00:32.249Z,100663.13
2022-09-18T09:03:09.645Z,100661.44
2022-09-18T09:05:45.282Z,100662.81
2022-09-18T09:08:27.469Z,100649.19
2022-09-18T09:11:00.213Z,100647.50
2022-09-18T09:14:00.308Z,100648.44
2022-09-18T09:16:36.722Z,100638.34
2022-09-18T09:19:12.551Z,100639.69
2022-09-18T09:21:49.966Z,100643.09
2022-09-18T09:24:28.363Z,100657.22
2022-09-18T09:26:57.369Z,100653.38
2022-09-18T09:29:28.688Z,100661.44
2022-09-18T09:31:59.902Z,100661.09
2022-09-18T09:34:30.427Z,100662.69
2022-09-18T09:37:00.404Z,100654.59
2022-09-18T09:39:30.731Z,100654.78
2022-09-18T09:42:00.241Z,100653.53
2022-09-18T09:44:33.611Z,100665.50
2022-09-18T09:47:08.247Z,100662.28
2022-09-18T09:49:40.086Z,100655.38
2022-09-18T09:52:11.381Z,100657.78
2022-09-18T09:54:39.569Z,100653.44
2022-09-18T09:57:17.210Z,100645.38
2022-09-18T09:59:49.766Z,100650.44
2022-09-18T10:02:29.549Z,100650.53
2022-09-18T10:05:03.259Z,100649.88
2022-09-18T10:07:35.454Z,100655.94
2022-09-18T10:10:08.399Z,100655.81
2022-09-18T10:12:44.453Z,100657.03
2022-09-18T10:15:17.790Z,100650.84
2022-09-18T10:17:49.424Z,100660.22
2022-09-18T10:20:18.000Z,100658.56
2022-09-18T10:22:47.352Z,100651.31
2022-09-18T10:25:18.479Z,100654.09
2022-09-18T10:27:46.001Z,100662.06
2022-09-18T10:30:14.892Z,100659.03
2022-09-18T10:32:42.724Z,100654.91
2022-09-18T10:35:43.912Z,100651.75
2022-09-18T10:38:32.526Z,100654.25
2022-09-18T10:41:19.041Z,100652.69
2022-09-18T10:43:58.626Z,100658.34
2022-09-18T10:46:28.852Z,100652.84
2022-09-18T10:48:56.795Z,100658.78
2022-09-18T10:51:28.729Z,100665.66
2022-09-18T10:54:04.963Z,100664.91
2022-09-18T10:56:33.276Z,100655.41
2022-09-18T10:59:15.712Z,100653.69
2022-09-18T11:01:45.000Z,100658.94
2022-09-18T11:04:17.197Z,100651.41
2022-09-18T11:06:47.439Z,100668.56
2022-09-18T11:09:18.815Z,100656.47
2022-09-18T11:11:50.157Z,100647.09
2022-09-18T11:14:19.668Z,100646.31
2022-09-18T11:16:50.804Z,100647.25
2022-09-18T11:19:25.031Z,100651.06
2022-09-18T11:21:55.225Z,100633.22
2022-09-18T11:24:25.175Z,100631.13
2022-09-18T11:26:54.032Z,100628.31
2022-09-18T11:29:26.495Z,100624.22
2022-09-18T11:31:56.984Z,100627.63
2022-09-18T11:34:27.779Z,100630.50
2022-09-18T11:36:59.330Z,100632.56
2022-09-18T11:39:30.106Z,100633.84
2022-09-18T11:41:57.676Z,100623.72
2022-09-18T11:44:27.619Z,100617.53
2022-09-18T11:47:25.420Z,100624.06
2022-09-18T11:49:56.650Z,100620.16
2022-09-18T11:52:28.870Z,100625.59
2022-09-18T11:54:59.274Z,100614.38
2022-09-18T11:57:29.150Z,100609.78
2022-09-18T11:59:59.520Z,100610.47
2022-09-18T12:02:31.947Z,100605.69
2022-09-18T12:05:04.251Z,100611.03
2022-09-18T12:07:40.618Z,100616.78
2022-09-18T12:10:14.926Z,100609.34
2022-09-18T12:12:45.454Z,100610.88
2022-09-18T12:15:16.632Z,100608.75
2022-09-18T12:17:48.432Z,100606.41
2022-09-18T12:20:23.413Z,100602.47
2022-09-18T12:22:54.738Z,100603.81
2022-09-18T12:25:28.835Z,100602.38
2022-09-18T12:28:00.797Z,100605.78
2022-09-18T12:30:33.074Z,100601.78
2022-09-18T12:33:20.670Z,100594.84
2022-09-18T12:36:25.518Z,100598.84
2022-09-18T12:39:04.190Z,100598.59
2022-09-18T12:41:43.090Z,100594.69
2022-09-18T12:44:24.397Z,100603.44
2022-09-18T12:47:00.931Z,100600.97
2022-09-18T12:49:45.794Z,100589.22
2022-09-18T12:52:25.832Z,100597.00
2022-09-18T12:55:11.270Z,100596.41
2022-09-18T12:57:47.916Z,100595.25
2022-09-18T13:00:16.501Z,100599.13
2022-09-18T13:02:51.681Z,100598.41
2022-09-18T13:05:23.592Z,100601.44
2022-09-18T13:07:53.099Z,100603.13
2022-09-18T13:10:25.475Z,100583.53
2022-09-18T13:12:57.625Z,100575.03
2022-09-18T13:15:28.168Z,100580.88
2022-09-18T13:18:09.635Z,100584.94
2022-09-18T13:20:41.607Z,100583.09
2022-09-18T13:23:14.379Z,100580.88
2022-09-18T13:25:43.555Z,100585.50
2022-09-18T13:28:13.699Z,100588.81
2022-09-18T13:30:41.471Z,100583.25
2022-09-18T13:33:23.052Z,100575.59
2022-09-18T13:35:54.938Z,100578.16
2022-09-18T13:38:23.852Z,100576.13
2022-09-18T13:41:00.546Z,100578.84
2022-09-18T13:43:45.005Z,100573.78
2022-09-18T13:46:31.293Z,100557.84
2022-09-18T13:49:00.087Z,100566.97
2022-09-18T13:51:31.397Z,100570.97
2022-09-18T13:54:24.254Z,100552.97
2022-09-18T13:57:17.599Z,100551.19
2022-09-18T13:59:47.535Z,100550.13
2022-09-18T14:02:35.201Z,100542.03
2022-09-18T14:05:32.947Z,100529.44
2022-09-18T14:08:04.324Z,100538.09
2022-09-18T14:10:38.350Z,100528.06
2022-09-18T14:13:31.655Z,100558.03
2022-09-18T14:16:06.010Z,100552.78
2022-09-18T14:18:36.862Z,100567.56
2022-09-18T14:21:25.191Z,100561.59
2022-09-18T14:24:25.183Z,100552.66
2022-09-18T14:27:01.942Z,100555.47
2022-09-18T14:29:33.291Z,100561.97
2022-09-18T14:32:02.595Z,100553.78
2022-09-18T14:34:36.663Z,100557.34
2022-09-18T14:37:21.603Z,100560.25
2022-09-18T14:39:49.147Z,100560.09
2022-09-18T14:42:27.817Z,100557.91
2022-09-18T14:45:15.909Z,100556.19
2022-09-18T14:47:44.890Z,100559.06
2022-09-18T14:50:28.486Z,100562.22
2022-09-18T14:52:56.718Z,100546.31
2022-09-18T14:55:28.439Z,100548.38
2022-09-18T14:57:58.239Z,100549.25
2022-09-18T15:00:30.060Z,100552.81
2022-09-18T15:02:59.673Z,100540.50
2022-09-18T15:05:28.339Z,100548.66
2022-09-18T15:07:59.412Z,100543.81
2022-09-18T15:10:28.129Z,100542.47
2022-09-18T15:12:57.805Z,100554.56
2022-09-18T15:15:30.421Z,100553.88
2022-09-18T15:17:58.271Z,100552.50
2022-09-18T15:20:27.463Z,100544.03
2022-09-18T15:22:55.362Z,100559.66
2022-09-18T15:25:26.135Z,100555.91
2022-09-18T15:27:54.893Z,100551.06
2022-09-18T15:30:23.790Z,100551.50
2022-09-18T15:32:55.122Z,100549.63
2022-09-18T15:35:25.078Z,100548.69
2022-09-18T15:37:55.047Z,100555.22
2022-09-18T15:40:30.144Z,100546.13
2022-09-18T15:42:59.662Z,100551.28
2022-09-18T15:45:29.282Z,100552.16
2022-09-18T15:48:00.504Z,100545.50
2022-09-18T15:50:38.934Z,100550.94
2022-09-18T15:53:17.582Z,100564.09
2022-09-18T15:56:01.111Z,100566.56
2022-09-18T15:58:40.667Z,100564.59
2022-09-18T16:01:16.195Z,100561.47
2022-09-18T16:03:45.171Z,100564.13
2022-09-18T16:06:22.554Z,100549.03
2022-09-18T16:08:52.379Z,100537.72
2022-09-18T16:11:42.653Z,100552.59
2022-09-18T16:14:44.899Z,100557.25
2022-09-18T16:17:52.138Z,100559.75
2022-09-18T16:20:30.824Z,100564.41
2022-09-18T16:23:05.733Z,100560.16
2022-09-18T16:25:37.286Z,100572.75
2022-09-18T16:28:18.673Z,100575.66
2022-09-18T16:30:48.431Z,100584.06
2022-09-18T16:33:19.742Z,100569.34
2022-09-18T16:35:55.711Z,100586.25
2022-09-18T16:38:23.394Z,100576.44
2022-09-18T16:40:51.339Z,100580.81
2022-09-18T16:43:18.882Z,100588.50
2022-09-18T16:45:47.805Z,100580.84
2022-09-18T16:48:15.834Z,100580.69
2022-09-18T16:50:43.612Z,100584.78
2022-09-18T16:53:12.976Z,100586.16
2022-09-18T16:55:43.378Z,100583.75
2022-09-18T16:58:11.211Z,100583.13
2022-09-18T17:00:38.811Z,100582.91
2022-09-18T17:03:07.155Z,100581.53
2022-09-18T17:05:35.266Z,100579.97
2022-09-18T17:08:03.903Z,100576.72
2022-09-18T17:10:32.794Z,100575.19
2022-09-18T17:13:00.336Z,100590.81
2022-09-18T17:15:27.855Z,100588.47
2022-09-18T17:17:55.411Z,100593.25
2022-09-18T17:20:23.054Z,100591.41
2022-09-18T17:22:51.357Z,100588.94
2022-09-18T17:25:19.391Z,100595.91
2022-09-18T17:27:50.836Z,100596.53
2022-09-18T17:30:18.630Z,100598.06
2022-09-18T17:32:48.084Z,100589.41
2022-09-18T17:35:15.896Z,100595.91
2022-09-18T17:37:43.675Z,100596.66
2022-09-18T17:40:11.603Z,100602.94
2022-09-18T17:42:39.194Z,100608.09
2022-09-18T17:45:09.314Z,100607.19
2022-09-18T17:47:36.927Z,100606.34
2022-09-18T17:50:05.457Z,100614.13
2022-09-18T17:52:34.631Z,100622.41
2022-09-18T17:55:02.343Z,100620.56
2022-09-18T17:57:30.998Z,100625.59
2022-09-18T17:59:58.594Z,100623.59
2022-09-18T18:02:27.596Z,100620.88
2022-09-18T18:04:55.255Z,100623.34
2022-09-18T18:07:23.530Z,100623.28
2022-09-18T18:09:51.023Z,100620.56
2022-09-18T18:12:18.536Z,100631.94
2022-09-18T18:14:46.409Z,100632.03
2022-09-18T18:17:14.470Z,100636.91
2022-09-18T18:19:43.311Z,100637.59
2022-09-18T18:22:10.820Z,100654.03
2022-09-18T18:24:38.392Z,100682.78
2022-09-18T18:27:06.151Z,100680.72
2022-09-18T18:29:33.662Z,100674.78
2022-09-18T18:32:01.431Z,100694.56
2022-09-18T18:34:30.023Z,100689.94
2022-09-18T18:36:58.867Z,100701.50
2022-09-18T18:39:26.366Z,100707.88
2022-09-18T18:41:53.858Z,100717.25
2022-09-18T18:44:22.231Z,100718.66
2022-09-18T18:46:51.070Z,100714.56
2022-09-18T18:49:18.907Z,100729.25
2022-09-18T18:51:48.475Z,100722.00
2022-09-18T18:54:18.734Z,100726.50
2022-09-18T18:56:46.942Z,100737.50
2022-09-18T18:59:16.174Z,100744.88
2022-09-18T19:01:44.282Z,100722.50
2022-09-18T19:04:14.474Z,100743.72
2022-09-18T19:06:44.379Z,100743.56
2022-09-18T19:09:16.039Z,100761.97
2022-09-18T19:11:49.247Z,100756.84
2022-09-18T19:14:18.503Z,100757.13
2022-09-18T19:16:46.852Z,100763.28
2022-09-18T19:19:15.894Z,100744.47
2022-09-18T19:21:43.443Z,100737.38
2022-09-18T19:24:12.068Z,100733.97
2022-09-18T19:26:41.310Z,100745.91
2022-09-18T19:29:17.686Z,100743.34
2022-09-18T19:31:46.715Z,100741.59
2022-09-18T19:34:15.984Z,100734.00
2022-09-18T19:36:48.935Z,100730.16
2022-09-18T19:39:17.312Z,100748.44
2022-09-18T19:41:47.749Z,100748.59
2022-09-18T19:44:20.298Z,100754.09
2022-09-18T19:46:48.141Z,100755.94
2022-09-18T19:49:18.198Z,100741.19
2022-09-18T19:51:45.811Z,100742.81
2022-09-18T19:54:13.869Z,100752.53
2022-09-18T19:56:46.400Z,100752.53
2022-09-18T19:59:14.286Z,100762.78
2022-09-18T20:01:43.635Z,100774.97
2022-09-18T20:04:11.318Z,100795.03
2022-09-18T20:06:40.305Z,100793.06
2022-09-18T20:09:07.943Z,100797.41
2022-09-18T20:11:35.543Z,100806.00
2022-09-18T20:14:03.230Z,100797.91
2022-09-18T20:16:30.886Z,100778.25
2022-09-18T20:18:59.822Z,100776.69
2022-09-18T20:21:27.407Z,100760.28
2022-09-18T20:23:57.573Z,100772.34
2022-09-18T20:26:26.011Z,100767.94
2022-09-18T20:28:53.525Z,100769.13
2022-09-18T20:31:23.313Z,100765.81
2022-09-18T20:33:54.872Z,100774.53
2022-09-18T20:36:25.562Z,100769.84
2022-09-18T20:38:57.770Z,100774.06
2022-09-18T20:41:28.091Z,100773.13
2022-09-18T20:43:55.661Z,100780.94
2022-09-18T20:46:23.932Z,100784.41
2022-09-18T20:48:55.024Z,100791.31
2022-09-18T20:51:25.724Z,100788.69
2022-09-18T20:53:56.087Z,100799.13
2022-09-18T20:56:24.536Z,100795.97
2022-09-18T20:58:52.239Z,100801.53
2022-09-18T21:01:22.939Z,100802.41
2022-09-18T21:03:56.515Z,100802.25
2022-09-18T21:06:27.227Z,100803.13
2022-09-18T21:08:55.651Z,100801.16
2022-09-18T21:11:24.540Z,100803.69
2022-09-18T21:13:53.545Z,100789.84
2022-09-18T21:16:21.981Z,100800.44
2022-09-18T21:18:53.424Z,100788.47
2022-09-18T21:21:21.158Z,100789.28
2022-09-18T21:23:58.373Z,100782.97
2022-09-18T21:26:27.480Z,100786.25
2022-09-18T21:28:57.154Z,100788.41
2022-09-18T21:31:24.917Z,100786.91
2022-09-18T21:33:53.198Z,100792.63
2022-09-18T21:36:21.644Z,100785.38
2022-09-18T21:38:51.386Z,100792.47
2022-09-18T21:41:19.845Z,100796.88
2022-09-18T21:43:50.926Z,100799.72
2022-09-18T21:46:20.452Z,100807.91
2022-09-18T21:48:52.738Z,100810.84
2022-09-18T21:51:20.791Z,100814.06
2022-09-18T21:53:49.655Z,100803.53
2022-09-18T21:56:18.425Z,100813.31
2022-09-18T21:58:47.617Z,100824.47
2022-09-18T22:01:19.084Z,100822.69
2022-09-18T22:03:50.499Z,100820.78
2022-09-18T22:06:19.215Z,100827.00
2022-09-18T22:08:50.790Z,100843.63
2022-09-18T22:11:20.603Z,100837.19
2022-09-18T22:13:49.308Z,100843.09
2022-09-18T22:16:17.023Z,100856.69
2022-09-18T22:18:47.551Z,100850.31
2022-09-18T22:21:20.172Z,100843.22
2022-09-18T22:23:53.123Z,100854.88
2022-09-18T22:26:22.576Z,100855.50
2022-09-18T22:28:50.836Z,100862.66
2022-09-18T22:31:18.886Z,100851.75
2022-09-18T22:33:47.221Z,100846.63
2022-09-18T22:36:15.570Z,100846.63
2022-09-18T22:38:43.396Z,100852.78
2022-09-18T22:41:10.910Z,100859.63
2022-09-18T22:43:39.751Z,100869.22
2022-09-18T22:46:09.163Z,100876.03
2022-09-18T22:48:37.191Z,100863.31
2022-09-18T22:51:06.790Z,100868.09
2022-09-18T22:53:34.454Z,100866.38
2022-09-18T22:56:03.944Z,100867.22
2022-09-18T22:58:31.710Z,100879.91
2022-09-18T23:01:07.810Z,100880.00
2022-09-18T23:03:36.726Z,100883.06
2022-09-18T23:06:06.286Z,100886.16
2022-09-18T23:08:34.852Z,100887.31
2022-09-18T23:11:03.586Z,100896.81
2022-09-18T23:13:32.338Z,100893.41
2022-09-18T23:16:05.245Z,100892.72
2022-09-18T23:18:34.372Z,100890.38
2022-09-18T23:21:03.379Z,100889.31
2022-09-18T23:23:32.682Z,100888.31
2022-09-18T23:26:08.380Z,100891.00
2022-09-18T23:28:37.459Z,100883.59
2022-09-18T23:31:06.317Z,100886.16
2022-09-18T23:33:35.666Z,100891.22
2022-09-18T23:36:11.138Z,100880.28
2022-09-18T23:38:39.119Z,100884.69
2022-09-18T23:41:09.574Z,100888.16
2022-09-18T23:43:37.261Z,100886.41
2022-09-18T23:46:05.457Z,100887.28
2022-09-18T23:48:34.754Z,100889.00
2022-09-18T23:51:03.111Z,100889.91
2022-09-18T23:53:35.218Z,100896.91
2022-09-18T23:56:07.185Z,100893.13
2022-09-18T23:58:35.174Z,100903.75
